Startpagina
METAR-TAF:

METAR-TAF

Vliegvelden :

Cocoseilanden, Australië

breedte: 12-11S, lengte: 096-49E, hoogte: 3 m

Actueel weer

Dit bericht is 28 minuten geleden gemaakt, om 19:18 UTC
Wind 14 kt uit het oostzuidoosten
Temperatuur 27°C
Vochtigheid 84%
Druk 1012 hPa
Zicht 10 km of meer
Verspreide wolken op 1300 ft
Gebroken wolken op 1800 ft
Gebroken wolken op 2400 ft

METAR: YPCC 021918Z AUTO 12014KT 9999 // SCT013 BKN018 BKN024 27/24 Q1012

Tijdstip: 02:16 (19:46 UTC)

Verwachting

Dit bericht is 2 uur en het 17 minuten geleden gemaakt, om 17:29 UTC
Verwachting geldig van 02 om 18 UTC tot 03 om 18 UTC
Wind 14 kt uit het zuidoosten
Zicht: 3000 m
Verspreide wolken op 1800 ft
Gebroken wolken op 4000 ft
Verspreide wolken op 1000 ft
regenbuien

TAF: YPCC 021729Z 0218/0318 13014KT 9999 SCT018 BKN040 INTER 0302/0308 3000 SHRA SCT010

Waarnemingen en weersverwachtingen van meer dan 4000 vliegvelden (METAR en TAF).

De beschikbare stations zijn de gele en rode punten op de kaart.

Ga met uw muis naar het station om de naam te zien.

Klik dan om waarnemingen en weersverwachtingen te zien.

kaart wijzigen: klik op de groene knoppen met een zwart kruis om in te zoomen, op de groene knop met een streepje om uit te zoomen of op de groene pijlen voor aangrenzende kaarten.


METAR-TAF: